Time;durP1;ratioP1;P1;durP2;ratioP2;P2;SDS_P1;SDS_P2;PMS_P1;PMS_P2;Temp;Humidity;BMP_temperature;BMP_pressure;BME280_temperature;BME280_humidity;BME280_pressure;Samples;Min_cycle;Max_cycle;Signal;HPM_P1;HPM_P2
2021/09/06 00:01:00;;;;;;;11.90;7.70;;;;;;;;;;5056710;28;20458;-72
2021/09/06 00:03:28;;;;;;;11.33;7.60;;;;;;;;;;5056217;28;20457;-72
2021/09/06 00:05:58;;;;;;;11.43;8.10;;;;;;;;;;5058306;28;20465;-72
2021/09/06 00:08:26;;;;;;;11.40;8.37;;;;;;;;;;5059624;28;20453;-72
2021/09/06 00:11:02;;;;;;;16.97;8.00;;;;;;;;;;5059787;28;20492;-72
2021/09/06 00:13:30;;;;;;;11.20;7.73;;;;;;;;;;5061154;28;20476;-72
2021/09/06 00:15:57;;;;;;;11.60;7.13;;;;;;;;;;5059830;28;20461;-72
2021/09/06 00:18:26;;;;;;;9.87;7.63;;;;;;;;;;5060682;28;20453;-72
2021/09/06 00:20:56;;;;;;;11.10;7.87;;;;;;;;;;5060517;28;21033;-73
2021/09/06 00:23:25;;;;;;;14.43;7.30;;;;;;;;;;5059203;28;20473;-72
2021/09/06 00:25:53;;;;;;;12.27;7.20;;;;;;;;;;5060632;28;20458;-71
2021/09/06 00:28:21;;;;;;;10.07;7.30;;;;;;;;;;5059285;28;20461;-71
2021/09/06 00:30:49;;;;;;;13.23;7.23;;;;;;;;;;5059674;28;20802;-72
2021/09/06 00:33:18;;;;;;;10.23;6.30;;;;;;;;;;5059241;28;20479;-71
2021/09/06 00:35:48;;;;;;;12.70;7.90;;;;;;;;;;5059716;28;20468;-71
2021/09/06 00:38:17;;;;;;;13.50;7.77;;;;;;;;;;5058688;28;20465;-70
2021/09/06 00:40:47;;;;;;;13.47;8.40;;;;;;;;;;5058888;28;20477;-70
2021/09/06 00:43:15;;;;;;;11.93;6.93;;;;;;;;;;5058868;28;20732;-71
2021/09/06 00:45:44;;;;;;;11.23;7.57;;;;;;;;;;5058785;28;20469;-69
2021/09/06 00:48:15;;;;;;;9.80;7.20;;;;;;;;;;5059748;28;20872;-71
2021/09/06 00:50:42;;;;;;;11.00;7.80;;;;;;;;;;5059571;28;20524;-71
2021/09/06 00:53:10;;;;;;;8.23;6.57;;;;;;;;;;5059217;28;20461;-72
2021/09/06 00:55:38;;;;;;;11.40;9.47;;;;;;;;;;5059510;28;20477;-71
2021/09/06 00:58:07;;;;;;;12.70;7.30;;;;;;;;;;5058605;28;20468;-71
2021/09/06 01:00:35;;;;;;;10.67;7.20;;;;;;;;;;5058810;28;20572;-71
2021/09/06 01:03:03;;;;;;;9.93;7.20;;;;;;;;;;5059008;28;20527;-71
2021/09/06 01:05:30;;;;;;;15.90;9.80;;;;;;;;;;5058590;28;20469;-71
2021/09/06 01:07:58;;;;;;;14.07;8.27;;;;;;;;;;5058988;28;20638;-71
2021/09/06 01:10:26;;;;;;;13.97;8.00;;;;;;;;;;5058687;28;20472;-71
2021/09/06 01:12:54;;;;;;;16.90;6.87;;;;;;;;;;5059116;28;20461;-71
2021/09/06 01:15:23;;;;;;;9.90;6.87;;;;;;;;;;5058620;28;20866;-71
2021/09/06 01:17:51;;;;;;;11.30;7.30;;;;;;;;;;5057619;28;20548;-72
2021/09/06 01:20:22;;;;;;;9.97;6.57;;;;;;;;;;5058362;28;20468;-71
2021/09/06 01:22:50;;;;;;;12.27;7.10;;;;;;;;;;5058786;28;20464;-71
2021/09/06 01:25:18;;;;;;;13.53;6.57;;;;;;;;;;5058544;28;20472;-72
2021/09/06 01:27:48;;;;;;;10.17;7.13;;;;;;;;;;5058903;28;20461;-71
2021/09/06 01:30:16;;;;;;;13.40;7.40;;;;;;;;;;5058112;28;20469;-71
2021/09/06 01:32:44;;;;;;;9.40;6.60;;;;;;;;;;5058019;28;20539;-72
2021/09/06 01:35:11;;;;;;;12.57;7.00;;;;;;;;;;5058437;28;20465;-72
2021/09/06 01:37:39;;;;;;;10.93;7.43;;;;;;;;;;5058489;28;20459;-72
2021/09/06 01:40:08;;;;;;;9.80;6.13;;;;;;;;;;5058319;28;20454;-71
2021/09/06 01:42:35;;;;;;;11.37;6.53;;;;;;;;;;5058577;28;20489;-71
2021/09/06 01:45:05;;;;;;;9.93;7.20;;;;;;;;;;5058089;28;20564;-71
2021/09/06 01:47:33;;;;;;;6.80;6.07;;;;;;;;;;5058178;28;20488;-71
2021/09/06 01:50:01;;;;;;;11.70;6.57;;;;;;;;;;5058121;28;20523;-71
2021/09/06 01:52:29;;;;;;;9.87;5.90;;;;;;;;;;5057776;28;20504;-71
2021/09/06 01:54:56;;;;;;;12.20;7.63;;;;;;;;;;5058021;28;20870;-71
2021/09/06 01:57:24;;;;;;;7.90;5.80;;;;;;;;;;5057980;28;20531;-71
2021/09/06 01:59:52;;;;;;;10.60;6.90;;;;;;;;;;5058369;28;20849;-71
2021/09/06 02:02:21;;;;;;;10.00;6.10;;;;;;;;;;5057779;28;20850;-71
2021/09/06 02:04:49;;;;;;;11.30;8.23;;;;;;;;;;5058692;28;20457;-71
2021/09/06 02:07:17;;;;;;;13.70;7.33;;;;;;;;;;5057911;28;20495;-71
2021/09/06 02:09:44;;;;;;;10.93;7.57;;;;;;;;;;5057606;28;20740;-71
2021/09/06 02:12:12;;;;;;;9.13;7.30;;;;;;;;;;5057426;28;20579;-71
2021/09/06 02:14:40;;;;;;;10.70;5.90;;;;;;;;;;5057862;28;20884;-71
2021/09/06 02:17:07;;;;;;;10.77;7.10;;;;;;;;;;5057329;28;20449;-71
2021/09/06 02:19:36;;;;;;;13.23;7.13;;;;;;;;;;5058118;28;20928;-71
2021/09/06 02:22:05;;;;;;;9.57;6.37;;;;;;;;;;5057939;28;20952;-71
2021/09/06 02:24:32;;;;;;;10.37;6.10;;;;;;;;;;5057575;28;20450;-71
2021/09/06 02:27:00;;;;;;;11.73;5.80;;;;;;;;;;5058083;28;20552;-71
2021/09/06 02:29:30;;;;;;;14.93;6.40;;;;;;;;;;5057601;28;20800;-71
2021/09/06 02:31:57;;;;;;;11.70;5.60;;;;;;;;;;5058224;28;20820;-71
2021/09/06 02:34:25;;;;;;;9.47;7.60;;;;;;;;;;5057645;28;20468;-71
2021/09/06 02:36:54;;;;;;;9.73;7.00;;;;;;;;;;5057524;28;20735;-71
2021/09/06 02:39:22;;;;;;;12.40;7.30;;;;;;;;;;5058407;28;20908;-71
2021/09/06 02:41:51;;;;;;;14.43;6.90;;;;;;;;;;5057160;28;20500;-71
2021/09/06 02:44:18;;;;;;;11.23;6.93;;;;;;;;;;5056453;28;20457;-72
2021/09/06 02:46:46;;;;;;;11.80;7.33;;;;;;;;;;5057029;28;20544;-71
2021/09/06 02:49:13;;;;;;;11.70;7.00;;;;;;;;;;5056614;28;20464;-71
2021/09/06 02:51:41;;;;;;;12.00;7.60;;;;;;;;;;5056514;28;20575;-71
2021/09/06 02:54:11;;;;;;;12.90;7.57;;;;;;;;;;5056898;28;20465;-71
2021/09/06 02:56:38;;;;;;;8.90;5.93;;;;;;;;;;5057282;28;20515;-71
2021/09/06 02:59:06;;;;;;;10.90;6.40;;;;;;;;;;5056787;28;20465;-71
2021/09/06 03:01:34;;;;;;;13.90;8.17;;;;;;;;;;5056769;28;20453;-71
2021/09/06 03:04:02;;;;;;;13.63;7.60;;;;;;;;;;5057258;28;20747;-71
2021/09/06 03:06:29;;;;;;;14.03;7.40;;;;;;;;;;5057035;28;20453;-71
2021/09/06 03:08:57;;;;;;;11.63;6.67;;;;;;;;;;5056471;28;20476;-72
2021/09/06 03:11:26;;;;;;;11.83;6.87;;;;;;;;;;5056392;28;20774;-71
2021/09/06 03:13:54;;;;;;;13.90;8.07;;;;;;;;;;5056687;28;20493;-71
2021/09/06 03:16:22;;;;;;;12.83;7.13;;;;;;;;;;5057070;28;20548;-72
2021/09/06 03:18:50;;;;;;;17.50;8.03;;;;;;;;;;5054628;28;20681;-72
2021/09/06 03:21:18;;;;;;;16.57;9.50;;;;;;;;;;5047209;28;20895;-72
2021/09/06 03:23:45;;;;;;;24.67;10.00;;;;;;;;;;5056414;28;20746;-71
2021/09/06 03:26:14;;;;;;;18.90;11.40;;;;;;;;;;5056801;28;20458;-72
2021/09/06 03:28:43;;;;;;;18.67;11.13;;;;;;;;;;5056427;28;20944;-72
2021/09/06 03:31:11;;;;;;;20.27;11.37;;;;;;;;;;5056098;28;20457;-71
2021/09/06 03:33:39;;;;;;;23.60;10.10;;;;;;;;;;5056549;28;20472;-71
2021/09/06 03:36:10;;;;;;;19.13;9.73;;;;;;;;;;5056693;28;20884;-72
2021/09/06 03:38:37;;;;;;;20.27;10.90;;;;;;;;;;5056803;28;20469;-71
2021/09/06 03:41:06;;;;;;;22.37;10.77;;;;;;;;;;5058622;28;20453;-71
2021/09/06 03:43:34;;;;;;;14.97;9.87;;;;;;;;;;5060422;28;20461;-71
2021/09/06 03:46:03;;;;;;;27.40;11.20;;;;;;;;;;5060793;28;20544;-72
2021/09/06 03:48:31;;;;;;;20.07;11.20;;;;;;;;;;5060382;28;20876;-71
2021/09/06 03:51:02;;;;;;;22.57;10.30;;;;;;;;;;5059510;28;20484;-72
2021/09/06 03:53:32;;;;;;;19.77;10.70;;;;;;;;;;5059137;28;20578;-72
2021/09/06 03:55:59;;;;;;;23.70;10.93;;;;;;;;;;5059171;28;20457;-71
2021/09/06 03:58:27;;;;;;;17.57;11.30;;;;;;;;;;5060807;28;20540;-72
2021/09/06 04:00:59;;;;;;;18.07;11.10;;;;;;;;;;5058634;28;20484;-72
2021/09/06 04:03:32;;;;;;;19.37;12.00;;;;;;;;;;5060691;28;20964;-72
2021/09/06 04:06:03;;;;;;;19.17;10.43;;;;;;;;;;5064118;28;20543;-71
2021/09/06 04:08:34;;;;;;;17.90;9.87;;;;;;;;;;5042321;28;20489;-72
2021/09/06 04:11:09;;;;;;;15.37;9.53;;;;;;;;;;5040075;28;20457;-71
2021/09/06 04:13:37;;;;;;;16.40;9.77;;;;;;;;;;5039621;28;20927;-71
2021/09/06 04:16:05;;;;;;;13.60;9.70;;;;;;;;;;5039432;28;20557;-72
2021/09/06 04:18:34;;;;;;;15.43;9.60;;;;;;;;;;5039709;28;20528;-71
2021/09/06 04:21:04;;;;;;;15.40;9.43;;;;;;;;;;5039431;28;20466;-72
2021/09/06 04:23:32;;;;;;;17.07;9.03;;;;;;;;;;5039525;28;20554;-71
2021/09/06 04:26:00;;;;;;;15.93;9.50;;;;;;;;;;5039248;28;20466;-71
2021/09/06 04:28:28;;;;;;;19.20;9.77;;;;;;;;;;5038988;28;20733;-71
2021/09/06 04:30:57;;;;;;;15.47;8.43;;;;;;;;;;5039400;28;20752;-71
2021/09/06 04:33:25;;;;;;;18.80;9.87;;;;;;;;;;5038647;28;20513;-72
2021/09/06 04:35:54;;;;;;;17.10;9.30;;;;;;;;;;5039591;28;20465;-72
2021/09/06 04:38:22;;;;;;;15.30;8.87;;;;;;;;;;5038686;28;20549;-71
2021/09/06 04:40:50;;;;;;;15.50;10.70;;;;;;;;;;5038725;28;20473;-72
2021/09/06 04:43:18;;;;;;;14.00;9.30;;;;;;;;;;5038912;28;20552;-71
2021/09/06 04:45:45;;;;;;;17.03;8.80;;;;;;;;;;5038579;28;20454;-71
2021/09/06 04:48:13;;;;;;;15.47;7.70;;;;;;;;;;5038433;28;20863;-71
2021/09/06 04:50:41;;;;;;;16.50;9.50;;;;;;;;;;5039111;28;20477;-72
2021/09/06 04:53:10;;;;;;;17.57;9.83;;;;;;;;;;5036899;28;20511;-71
2021/09/06 04:55:39;;;;;;;15.00;9.40;;;;;;;;;;5037554;28;20462;-71
2021/09/06 04:58:07;;;;;;;16.03;9.17;;;;;;;;;;5038214;28;20454;-71
2021/09/06 05:00:35;;;;;;;13.20;8.43;;;;;;;;;;5037921;28;20473;-71
2021/09/06 05:03:03;;;;;;;12.90;7.80;;;;;;;;;;5037482;28;20461;-71
2021/09/06 05:05:31;;;;;;;14.30;7.63;;;;;;;;;;5036872;28;20858;-71
2021/09/06 05:07:58;;;;;;;15.57;7.63;;;;;;;;;;5037182;28;20561;-71
2021/09/06 05:10:28;;;;;;;12.80;8.50;;;;;;;;;;5037583;28;20450;-70
2021/09/06 05:12:57;;;;;;;11.60;8.20;;;;;;;;;;5036895;28;21196;-70
2021/09/06 05:15:24;;;;;;;15.77;8.60;;;;;;;;;;5037374;28;20454;-70
2021/09/06 05:17:55;;;;;;;14.23;8.07;;;;;;;;;;5038811;28;20549;-71
2021/09/06 05:20:26;;;;;;;15.50;9.93;;;;;;;;;;5055148;28;20722;-70
2021/09/06 05:22:54;;;;;;;17.87;8.60;;;;;;;;;;5054072;28;20516;-72
2021/09/06 05:25:22;;;;;;;18.77;10.67;;;;;;;;;;5054136;28;20456;-70
2021/09/06 05:27:51;;;;;;;18.60;12.00;;;;;;;;;;5056392;28;20484;-71
2021/09/06 05:30:22;;;;;;;14.43;9.03;;;;;;;;;;5056759;28;20484;-72
2021/09/06 05:32:49;;;;;;;15.37;9.97;;;;;;;;;;5051536;28;20608;-71
2021/09/06 05:35:17;;;;;;;17.90;10.93;;;;;;;;;;5055562;28;20555;-70
2021/09/06 05:37:45;;;;;;;17.27;9.47;;;;;;;;;;5054703;28;20457;-72
2021/09/06 05:40:14;;;;;;;18.97;9.63;;;;;;;;;;5052923;28;20819;-71
2021/09/06 05:42:41;;;;;;;16.50;9.30;;;;;;;;;;5053081;28;20556;-71
2021/09/06 05:45:11;;;;;;;14.30;10.90;;;;;;;;;;5052717;28;20552;-72
2021/09/06 05:47:39;;;;;;;19.40;11.50;;;;;;;;;;5041090;28;21090;-71
2021/09/06 05:50:08;;;;;;;14.87;9.43;;;;;;;;;;5055144;28;20456;-72
2021/09/06 05:52:36;;;;;;;15.87;10.60;;;;;;;;;;5055012;28;20784;-72
2021/09/06 05:55:08;;;;;;;20.17;10.13;;;;;;;;;;5055388;28;20461;-71
2021/09/06 05:57:36;;;;;;;17.27;11.13;;;;;;;;;;5054416;28;20460;-71
2021/09/06 06:00:07;;;;;;;18.50;11.00;;;;;;;;;;5053959;28;20744;-70
2021/09/06 06:02:38;;;;;;;14.87;10.10;;;;;;;;;;5036454;28;20482;-70
2021/09/06 06:05:06;;;;;;;15.70;10.60;;;;;;;;;;5035168;28;20782;-71
2021/09/06 06:07:34;;;;;;;15.90;10.83;;;;;;;;;;5035486;28;20478;-70
2021/09/06 06:10:04;;;;;;;23.63;14.40;;;;;;;;;;5035632;28;20474;-71
2021/09/06 06:12:32;;;;;;;20.87;13.50;;;;;;;;;;5045874;28;20485;-71
2021/09/06 06:15:03;;;;;;;25.47;13.00;;;;;;;;;;5055603;28;20465;-70
2021/09/06 06:17:33;;;;;;;22.20;12.47;;;;;;;;;;5039557;28;20462;-72
2021/09/06 06:20:08;;;;;;;22.50;10.63;;;;;;;;;;5041901;28;20829;-71
2021/09/06 06:22:36;;;;;;;18.93;12.60;;;;;;;;;;5059434;28;20749;-70
2021/09/06 06:25:04;;;;;;;21.20;12.20;;;;;;;;;;5035996;28;20918;-71
2021/09/06 06:27:32;;;;;;;21.73;12.93;;;;;;;;;;5039119;28;20454;-70
2021/09/06 06:30:02;;;;;;;21.20;13.50;;;;;;;;;;5062586;28;20471;-72
2021/09/06 06:32:32;;;;;;;18.90;11.60;;;;;;;;;;5055471;28;20503;-71
2021/09/06 06:35:01;;;;;;;21.07;14.60;;;;;;;;;;5054899;28;20484;-71
2021/09/06 06:37:37;;;;;;;22.43;12.70;;;;;;;;;;5054857;28;20520;-72
2021/09/06 06:40:05;;;;;;;17.90;11.40;;;;;;;;;;5043108;28;20468;-71
2021/09/06 06:42:33;;;;;;;21.90;13.30;;;;;;;;;;5054663;28;20552;-70
2021/09/06 06:45:02;;;;;;;29.20;13.90;;;;;;;;;;5048432;28;20525;-70
2021/09/06 06:47:35;;;;;;;19.93;12.73;;;;;;;;;;5034803;28;20447;-71
2021/09/06 06:50:09;;;;;;;21.23;12.23;;;;;;;;;;5034634;28;20491;-71
2021/09/06 06:52:40;;;;;;;18.97;11.93;;;;;;;;;;5034827;28;20526;-71
2021/09/06 06:55:11;;;;;;;24.20;12.90;;;;;;;;;;5053798;28;20457;-71
2021/09/06 06:57:39;;;;;;;18.20;11.37;;;;;;;;;;5053576;28;20449;-71
2021/09/06 07:00:10;;;;;;;15.73;11.17;;;;;;;;;;5055648;28;20465;-70
2021/09/06 07:02:38;;;;;;;23.93;15.00;;;;;;;;;;5043202;28;20520;-70
2021/09/06 07:05:16;;;;;;;20.13;11.60;;;;;;;;;;5035241;28;20465;-70
2021/09/06 07:07:52;;;;;;;16.73;11.53;;;;;;;;;;5039819;28;20773;-71
2021/09/06 07:10:21;;;;;;;22.03;14.43;;;;;;;;;;5052764;28;20473;-73
2021/09/06 07:12:51;;;;;;;22.30;14.60;;;;;;;;;;5053709;28;20475;-71
2021/09/06 07:15:20;;;;;;;28.43;13.40;;;;;;;;;;5054366;28;20928;-73
2021/09/06 07:17:50;;;;;;;20.70;14.00;;;;;;;;;;5058205;28;20450;-72
2021/09/06 07:20:18;;;;;;;19.13;13.60;;;;;;;;;;5054001;28;20517;-71
2021/09/06 07:22:48;;;;;;;27.37;16.20;;;;;;;;;;5055347;28;20465;-71
2021/09/06 07:25:18;;;;;;;21.10;14.27;;;;;;;;;;5058985;28;20612;-72
2021/09/06 07:27:49;;;;;;;19.90;14.63;;;;;;;;;;5058589;28;20539;-71
2021/09/06 07:30:18;;;;;;;19.03;12.90;;;;;;;;;;5058154;28;20540;-72
2021/09/06 07:32:48;;;;;;;39.00;22.20;;;;;;;;;;5043279;28;20472;-72
2021/09/06 07:35:19;;;;;;;22.00;14.63;;;;;;;;;;5056996;28;20727;-72
2021/09/06 07:37:49;;;;;;;31.33;14.30;;;;;;;;;;5037341;28;20474;-72
2021/09/06 07:40:18;;;;;;;20.70;13.30;;;;;;;;;;5046842;28;20533;-72
2021/09/06 07:42:49;;;;;;;20.17;14.23;;;;;;;;;;5045248;28;20865;-71
2021/09/06 07:45:17;;;;;;;20.80;15.10;;;;;;;;;;5047582;28;20450;-71
2021/09/06 07:47:49;;;;;;;25.13;15.90;;;;;;;;;;5041435;28;20489;-72
2021/09/06 07:50:40;;;;;;;27.03;17.50;;;;;;;;;;5044426;28;21042;-73
2021/09/06 07:53:35;;;;;;;24.50;14.57;;;;;;;;;;5038394;28;20942;-73
2021/09/06 07:56:18;;;;;;;28.53;21.30;;;;;;;;;;5048279;28;20528;-73
2021/09/06 07:58:50;;;;;;;20.87;13.63;;;;;;;;;;5053430;28;20464;-73
2021/09/06 08:01:24;;;;;;;22.80;15.43;;;;;;;;;;5059318;28;20455;-73
2021/09/06 08:03:53;;;;;;;22.03;15.60;;;;;;;;;;5064064;28;20473;-73
2021/09/06 08:06:22;;;;;;;22.30;14.10;;;;;;;;;;5043626;28;20468;-73
2021/09/06 08:08:51;;;;;;;21.47;15.80;;;;;;;;;;5042412;28;21054;-73
2021/09/06 08:11:19;;;;;;;23.37;15.53;;;;;;;;;;5057854;28;20448;-72
2021/09/06 08:13:47;;;;;;;20.93;12.77;;;;;;;;;;5044006;28;20496;-73
2021/09/06 08:16:15;;;;;;;19.10;12.23;;;;;;;;;;5038433;28;21131;-73
2021/09/06 08:18:43;;;;;;;21.27;11.40;;;;;;;;;;5039266;28;20838;-72
2021/09/06 08:21:11;;;;;;;18.30;11.20;;;;;;;;;;5039760;28;20719;-72
2021/09/06 08:23:40;;;;;;;23.37;12.43;;;;;;;;;;5038510;28;20473;-72
2021/09/06 08:26:12;;;;;;;16.87;10.63;;;;;;;;;;5047933;28;20535;-72
2021/09/06 08:28:41;;;;;;;17.43;11.83;;;;;;;;;;5053747;28;20466;-72
2021/09/06 08:31:09;;;;;;;17.17;11.63;;;;;;;;;;5057605;28;20450;-71
2021/09/06 08:33:38;;;;;;;19.27;13.70;;;;;;;;;;5057277;28;20489;-72
2021/09/06 08:36:10;;;;;;;17.10;12.80;;;;;;;;;;5039898;28;20486;-70
2021/09/06 08:38:37;;;;;;;16.03;11.90;;;;;;;;;;5040286;28;20470;-71
2021/09/06 08:41:08;;;;;;;25.73;11.83;;;;;;;;;;5042825;28;20455;-71
2021/09/06 08:43:38;;;;;;;14.10;9.83;;;;;;;;;;5037446;28;20526;-72
2021/09/06 08:46:06;;;;;;;13.90;10.43;;;;;;;;;;5036859;28;20458;-72
2021/09/06 08:48:34;;;;;;;14.67;9.13;;;;;;;;;;5037001;28;20466;-71
2021/09/06 08:51:05;;;;;;;15.97;11.50;;;;;;;;;;5067041;28;20456;-72
2021/09/06 08:53:36;;;;;;;19.90;11.23;;;;;;;;;;5078071;28;20476;-72
2021/09/06 08:56:07;;;;;;;13.83;9.83;;;;;;;;;;5061840;28;20521;-71
2021/09/06 08:58:35;;;;;;;14.77;10.83;;;;;;;;;;5038775;28;20835;-71
2021/09/06 09:01:09;;;;;;;15.83;11.53;;;;;;;;;;5037603;28;20746;-72
2021/09/06 09:03:41;;;;;;;12.67;9.40;;;;;;;;;;5056125;28;20446;-72
2021/09/06 09:06:14;;;;;;;17.27;11.10;;;;;;;;;;5051022;28;20464;-71
2021/09/06 09:08:54;;;;;;;18.07;13.00;;;;;;;;;;5046488;28;20509;-71
2021/09/06 09:11:22;;;;;;;16.60;10.53;;;;;;;;;;5037495;28;20454;-70
2021/09/06 09:13:54;;;;;;;12.50;9.50;;;;;;;;;;5048471;28;20572;-71
2021/09/06 09:16:32;;;;;;;12.63;9.83;;;;;;;;;;5037064;28;20528;-72
2021/09/06 09:19:08;;;;;;;15.83;10.40;;;;;;;;;;5037324;28;20461;-72
2021/09/06 09:21:58;;;;;;;14.70;11.03;;;;;;;;;;5052666;28;20483;-73
2021/09/06 09:24:28;;;;;;;19.20;11.70;;;;;;;;;;5049389;28;20461;-73
2021/09/06 09:26:57;;;;;;;17.87;10.03;;;;;;;;;;5055753;28;20450;-71
2021/09/06 09:29:25;;;;;;;14.57;10.97;;;;;;;;;;5055177;28;20858;-72
2021/09/06 09:31:55;;;;;;;17.47;12.83;;;;;;;;;;5050459;28;20497;-72
2021/09/06 09:34:24;;;;;;;14.83;11.70;;;;;;;;;;5035432;28;20494;-72
2021/09/06 09:36:54;;;;;;;16.17;11.60;;;;;;;;;;5048244;28;20990;-72
2021/09/06 09:39:22;;;;;;;16.37;11.63;;;;;;;;;;5054346;28;20798;-71
2021/09/06 09:42:05;;;;;;;18.13;13.60;;;;;;;;;;5049245;28;20454;-71
2021/09/06 09:44:44;;;;;;;16.30;11.90;;;;;;;;;;5042277;28;20816;-73
2021/09/06 09:47:17;;;;;;;16.30;11.87;;;;;;;;;;5050630;28;20454;-72
2021/09/06 09:49:50;;;;;;;14.43;9.50;;;;;;;;;;5056310;28;20485;-74
2021/09/06 09:52:18;;;;;;;16.07;10.77;;;;;;;;;;5057778;28;21058;-73
2021/09/06 09:54:56;;;;;;;15.07;10.97;;;;;;;;;;5051153;28;20506;-72
2021/09/06 09:57:26;;;;;;;13.63;10.13;;;;;;;;;;5044172;28;20455;-72
2021/09/06 09:59:54;;;;;;;20.20;12.13;;;;;;;;;;5044837;28;20744;-72
2021/09/06 10:02:27;;;;;;;15.97;11.83;;;;;;;;;;5063244;28;20462;-71
2021/09/06 10:05:13;;;;;;;18.87;11.43;;;;;;;;;;5040802;28;20469;-72
2021/09/06 10:07:44;;;;;;;15.77;10.93;;;;;;;;;;5046198;28;20805;-72
2021/09/06 10:10:17;;;;;;;18.47;11.00;;;;;;;;;;5036058;28;20466;-73
2021/09/06 10:12:49;;;;;;;15.60;10.37;;;;;;;;;;5035971;28;20560;-73
2021/09/06 10:15:18;;;;;;;14.50;9.77;;;;;;;;;;5047818;28;20555;-71
2021/09/06 10:17:51;;;;;;;11.70;9.00;;;;;;;;;;5054548;28;20465;-73
2021/09/06 10:20:22;;;;;;;19.97;10.60;;;;;;;;;;5047511;28;20580;-71
2021/09/06 10:23:01;;;;;;;12.50;8.63;;;;;;;;;;5039566;28;20510;-72
2021/09/06 10:25:31;;;;;;;18.87;14.33;;;;;;;;;;5037584;28;20557;-74
2021/09/06 10:28:04;;;;;;;17.30;10.07;;;;;;;;;;5076336;28;21048;-72
2021/09/06 10:30:35;;;;;;;16.40;11.27;;;;;;;;;;5054723;28;21013;-71
2021/09/06 10:33:06;;;;;;;16.17;10.33;;;;;;;;;;5042974;28;20811;-72
2021/09/06 10:35:39;;;;;;;13.67;9.70;;;;;;;;;;5039740;28;20490;-72
2021/09/06 10:38:09;;;;;;;16.90;10.80;;;;;;;;;;5052775;28;20509;-72
2021/09/06 10:40:40;;;;;;;14.20;11.20;;;;;;;;;;5040274;28;20551;-73
2021/09/06 10:43:24;;;;;;;13.50;10.03;;;;;;;;;;5042804;28;20652;-73
2021/09/06 10:45:59;;;;;;;13.27;9.40;;;;;;;;;;5047919;28;20468;-74
2021/09/06 10:48:42;;;;;;;12.23;9.17;;;;;;;;;;5056290;28;20825;-74
2021/09/06 10:51:14;;;;;;;17.90;8.87;;;;;;;;;;5054406;28;20732;-73
2021/09/06 10:53:45;;;;;;;19.80;13.60;;;;;;;;;;5056732;28;21088;-75
2021/09/06 10:56:16;;;;;;;12.47;8.80;;;;;;;;;;5054568;28;20468;-74
2021/09/06 10:58:55;;;;;;;14.20;10.47;;;;;;;;;;5054456;28;20889;-74
2021/09/06 11:01:28;;;;;;;13.00;10.30;;;;;;;;;;5055706;28;20468;-74
2021/09/06 11:04:03;;;;;;;13.90;9.67;;;;;;;;;;5054673;28;21012;-73
2021/09/06 11:07:06;;;;;;;16.33;9.90;;;;;;;;;;5056262;28;20893;-74
2021/09/06 11:09:44;;;;;;;15.43;10.93;;;;;;;;;;5052664;28;20969;-74
2021/09/06 11:12:37;;;;;;;14.23;9.70;;;;;;;;;;5053621;28;20523;-73
2021/09/06 11:15:29;;;;;;;18.13;10.00;;;;;;;;;;4992295;28;20691;-72
2021/09/06 11:21:06;;;;;;;13.50;9.80;;;;;;;;;;5043274;28;20452;-72
2021/09/06 11:23:43;;;;;;;14.00;8.50;;;;;;;;;;5051891;28;20458;-72
2021/09/06 11:29:08;;;;;;;14.33;10.77;;;;;;;;;;5044203;28;20477;-71
2021/09/06 11:31:50;;;;;;;16.80;10.57;;;;;;;;;;5053403;28;20502;-72
2021/09/06 11:34:33;;;;;;;11.47;7.80;;;;;;;;;;5052052;28;20590;-71
2021/09/06 11:37:08;;;;;;;20.03;8.97;;;;;;;;;;5044070;28;20758;-72
2021/09/06 11:39:37;;;;;;;15.13;8.97;;;;;;;;;;5035460;28;20457;-73
2021/09/06 11:42:07;;;;;;;15.67;9.43;;;;;;;;;;5033391;28;20464;-72
2021/09/06 11:44:35;;;;;;;12.20;9.37;;;;;;;;;;5044466;28;20503;-72
2021/09/06 11:47:12;;;;;;;12.20;8.67;;;;;;;;;;5044412;28;20470;-73
2021/09/06 11:49:44;;;;;;;13.07;9.00;;;;;;;;;;5048191;28;20501;-72
2021/09/06 11:52:29;;;;;;;16.13;11.90;;;;;;;;;;5035459;28;20498;-71
2021/09/06 11:55:14;;;;;;;16.00;8.57;;;;;;;;;;5012803;28;20490;-71
2021/09/06 11:58:01;;;;;;;;;;;;;;;;;;;;;
2021/09/06 12:00:39;;;;;;;14.73;8.40;;;;;;;;;;5029640;28;20491;-73
2021/09/06 12:03:13;;;;;;;11.00;8.10;;;;;;;;;;5048876;28;20539;-72
2021/09/06 12:05:42;;;;;;;12.77;8.67;;;;;;;;;;5048578;28;20458;-72
2021/09/06 12:08:14;;;;;;;17.53;9.00;;;;;;;;;;5049269;28;20456;-71
2021/09/06 12:10:47;;;;;;;10.90;7.60;;;;;;;;;;5052968;28;20453;-72
2021/09/06 12:13:21;;;;;;;10.63;8.40;;;;;;;;;;5056198;28;20453;-72
2021/09/06 12:15:58;;;;;;;14.40;9.80;;;;;;;;;;5057682;28;20513;-72
2021/09/06 12:18:38;;;;;;;12.40;10.03;;;;;;;;;;5053649;28;20445;-71
2021/09/06 12:21:10;;;;;;;11.93;8.50;;;;;;;;;;5042366;28;20893;-71
2021/09/06 12:23:39;;;;;;;15.40;10.30;;;;;;;;;;5046321;28;20472;-70
2021/09/06 12:26:12;;;;;;;12.93;9.17;;;;;;;;;;5047772;28;20508;-72
2021/09/06 12:28:48;;;;;;;14.07;10.67;;;;;;;;;;5040270;28;20477;-71
2021/09/06 12:31:17;;;;;;;12.80;9.37;;;;;;;;;;5049777;28;20517;-72
2021/09/06 12:33:46;;;;;;;13.13;8.67;;;;;;;;;;5043418;28;20457;-74
2021/09/06 12:36:14;;;;;;;16.60;9.50;;;;;;;;;;5048944;28;20795;-72
2021/09/06 12:38:43;;;;;;;13.90;10.30;;;;;;;;;;5053706;28;20461;-72
2021/09/06 12:41:17;;;;;;;10.73;8.77;;;;;;;;;;5044172;28;20501;-72
2021/09/06 12:43:52;;;;;;;15.20;8.97;;;;;;;;;;5039212;28;20504;-72
2021/09/06 12:46:21;;;;;;;13.33;8.80;;;;;;;;;;5052370;28;20467;-72
2021/09/06 12:48:49;;;;;;;13.27;8.80;;;;;;;;;;5043871;28;20475;-71
2021/09/06 12:51:16;;;;;;;13.87;9.60;;;;;;;;;;5049710;28;20473;-71
2021/09/06 12:53:45;;;;;;;15.10;8.73;;;;;;;;;;5050187;28;20469;-71
2021/09/06 12:56:15;;;;;;;13.77;9.40;;;;;;;;;;5055876;28;20495;-72
2021/09/06 12:58:53;;;;;;;17.23;12.20;;;;;;;;;;5042723;28;20494;-72
2021/09/06 13:01:21;;;;;;;12.27;8.27;;;;;;;;;;5036722;28;20470;-71
2021/09/06 13:03:54;;;;;;;13.37;9.57;;;;;;;;;;5036588;28;20850;-70
2021/09/06 13:06:23;;;;;;;15.73;9.93;;;;;;;;;;5036830;28;20470;-72
2021/09/06 13:08:51;;;;;;;13.20;8.90;;;;;;;;;;5039389;28;20454;-71
2021/09/06 13:11:23;;;;;;;11.00;9.13;;;;;;;;;;5047263;28;20568;-72
2021/09/06 13:13:52;;;;;;;16.93;10.60;;;;;;;;;;5051795;28;20533;-71
2021/09/06 13:16:24;;;;;;;13.17;10.17;;;;;;;;;;5057903;28;20485;-71
2021/09/06 13:18:55;;;;;;;14.50;9.63;;;;;;;;;;5047351;28;20464;-72
2021/09/06 13:21:26;;;;;;;10.80;8.67;;;;;;;;;;5056407;28;20473;-71
2021/09/06 13:24:01;;;;;;;14.63;8.30;;;;;;;;;;5053356;28;20890;-72
2021/09/06 13:26:31;;;;;;;14.27;9.37;;;;;;;;;;5036016;28;20497;-72
2021/09/06 13:28:59;;;;;;;16.87;10.13;;;;;;;;;;5037963;28;20798;-72
2021/09/06 13:31:27;;;;;;;14.97;10.20;;;;;;;;;;5050540;28;20448;-72
2021/09/06 13:34:07;;;;;;;11.87;8.70;;;;;;;;;;5051865;28;20466;-72
2021/09/06 13:36:49;;;;;;;13.77;9.57;;;;;;;;;;5048324;28;20687;-72
2021/09/06 13:39:27;;;;;;;14.70;9.23;;;;;;;;;;5056121;28;20465;-72
2021/09/06 13:42:08;;;;;;;15.13;9.50;;;;;;;;;;5051728;28;20467;-72
2021/09/06 13:44:37;;;;;;;12.90;8.80;;;;;;;;;;5041591;28;20505;-71
2021/09/06 13:50:00;;;;;;;12.27;8.17;;;;;;;;;;5066262;28;20449;-71
2021/09/06 13:52:49;;;;;;;15.80;10.50;;;;;;;;;;5039540;28;20454;-71
2021/09/06 13:55:19;;;;;;;14.73;10.30;;;;;;;;;;5054709;28;20508;-72
2021/09/06 13:57:48;;;;;;;13.10;8.37;;;;;;;;;;5054120;28;20963;-70
2021/09/06 14:00:17;;;;;;;14.43;9.40;;;;;;;;;;5052813;28;20462;-71
2021/09/06 14:02:45;;;;;;;12.10;9.17;;;;;;;;;;5048440;28;21031;-72
2021/09/06 14:08:13;;;;;;;8.60;7.23;;;;;;;;;;5037303;28;20458;-72
2021/09/06 14:11:00;;;;;;;10.47;7.33;;;;;;;;;;5043619;28;20897;-72
2021/09/06 14:13:32;;;;;;;11.83;6.50;;;;;;;;;;5056280;28;20524;-72
2021/09/06 14:16:01;;;;;;;14.80;7.10;;;;;;;;;;5060299;28;20819;-71
2021/09/06 14:18:29;;;;;;;11.40;8.87;;;;;;;;;;5072167;28;20926;-71
2021/09/06 14:21:03;;;;;;;13.60;8.07;;;;;;;;;;5056336;28;20471;-72
2021/09/06 14:23:37;;;;;;;15.50;9.47;;;;;;;;;;5043036;28;20458;-73
2021/09/06 14:26:05;;;;;;;12.30;8.67;;;;;;;;;;5034693;28;20494;-73
2021/09/06 14:28:43;;;;;;;11.40;6.30;;;;;;;;;;5037532;28;20505;-73
2021/09/06 14:31:16;;;;;;;8.90;6.30;;;;;;;;;;5037388;28;20458;-73
2021/09/06 14:33:52;;;;;;;15.83;8.00;;;;;;;;;;5048454;28;20461;-73
2021/09/06 14:36:23;;;;;;;14.67;9.80;;;;;;;;;;5050819;28;20473;-73
2021/09/06 14:38:54;;;;;;;13.00;8.90;;;;;;;;;;5046777;28;20507;-74
2021/09/06 14:41:23;;;;;;;13.33;7.80;;;;;;;;;;5054013;28;20563;-71
2021/09/06 14:43:54;;;;;;;12.30;7.37;;;;;;;;;;5054914;28;20472;-72
2021/09/06 14:46:29;;;;;;;13.57;7.67;;;;;;;;;;5053942;28;20472;-72
2021/09/06 14:48:57;;;;;;;10.90;7.87;;;;;;;;;;5055160;28;21005;-71
2021/09/06 14:51:30;;;;;;;11.60;7.90;;;;;;;;;;5042204;28;20501;-72
2021/09/06 14:53:58;;;;;;;11.43;7.80;;;;;;;;;;5035112;28;20545;-72
2021/09/06 14:56:44;;;;;;;14.47;7.77;;;;;;;;;;5038760;28;20493;-72
2021/09/06 14:59:24;;;;;;;10.90;6.77;;;;;;;;;;5033776;28;20454;-72